createdAt,value
2022-11-14T00:03:06.292Z,6.50
2022-11-14T00:08:15.630Z,6.30
2022-11-14T00:13:18.821Z,6.10
2022-11-14T00:18:20.998Z,6.00
2022-11-14T00:23:22.893Z,5.80
2022-11-14T00:28:24.667Z,5.60
2022-11-14T00:33:26.392Z,5.70
2022-11-14T00:38:28.587Z,5.50
2022-11-14T00:43:30.726Z,5.40
2022-11-14T00:48:32.864Z,5.40
2022-11-14T00:53:34.886Z,5.30
2022-11-14T00:58:36.622Z,5.20
2022-11-14T01:03:38.360Z,5.30
2022-11-14T01:08:40.042Z,5.10
2022-11-14T01:13:41.944Z,5.20
2022-11-14T01:18:43.659Z,5.20
2022-11-14T01:23:45.445Z,5.20
2022-11-14T01:28:47.216Z,5.10
2022-11-14T01:33:53.985Z,5.00
2022-11-14T01:38:55.953Z,4.90
2022-11-14T01:43:57.690Z,4.90
2022-11-14T01:49:15.973Z,5.00
2022-11-14T01:54:30.932Z,5.10
2022-11-14T01:59:37.727Z,4.90
2022-11-14T02:04:43.537Z,4.90
2022-11-14T02:09:47.791Z,4.70
2022-11-14T02:14:52.753Z,4.70
2022-11-14T02:20:05.056Z,4.60
2022-11-14T02:25:09.294Z,4.50
2022-11-14T02:30:14.537Z,4.50
2022-11-14T02:35:16.417Z,4.50
2022-11-14T02:40:18.358Z,4.40
2022-11-14T02:45:20.952Z,4.40
2022-11-14T02:50:22.793Z,4.30
2022-11-14T02:55:24.679Z,4.20
2022-11-14T03:00:26.652Z,4.10
2022-11-14T03:05:28.412Z,4.20
2022-11-14T03:10:30.180Z,4.30
2022-11-14T03:15:31.880Z,4.20
2022-11-14T03:20:34.783Z,4.00
2022-11-14T03:25:36.568Z,4.10
2022-11-14T03:30:38.277Z,4.10
2022-11-14T03:35:43.196Z,4.10
2022-11-14T03:40:45.500Z,4.00
2022-11-14T03:45:48.100Z,3.90
2022-11-14T03:50:49.829Z,3.90
2022-11-14T03:55:52.454Z,3.80
2022-11-14T04:00:56.325Z,3.70
2022-11-14T04:05:58.146Z,3.80
2022-11-14T04:10:59.884Z,3.80
2022-11-14T04:16:01.772Z,3.80
2022-11-14T04:21:03.615Z,3.70
2022-11-14T04:26:05.453Z,3.60
2022-11-14T04:31:07.209Z,3.70
2022-11-14T04:36:09.164Z,3.80
2022-11-14T04:41:10.956Z,3.70
2022-11-14T04:46:12.679Z,3.70
2022-11-14T04:51:14.451Z,3.60
2022-11-14T04:56:16.221Z,3.50
2022-11-14T05:01:18.498Z,3.50
2022-11-14T05:06:20.258Z,3.60
2022-11-14T05:11:26.594Z,3.70
2022-11-14T05:16:30.638Z,3.60
2022-11-14T05:21:32.418Z,3.80
2022-11-14T05:26:34.281Z,3.80
2022-11-14T05:31:36.031Z,3.70
2022-11-14T05:36:37.967Z,3.70
2022-11-14T05:41:39.693Z,3.60
2022-11-14T05:46:41.514Z,3.50
2022-11-14T05:51:43.254Z,3.50
2022-11-14T05:56:45.000Z,3.40
2022-11-14T06:01:46.748Z,3.30
2022-11-14T06:06:48.550Z,3.40
2022-11-14T06:11:50.317Z,3.20
2022-11-14T06:16:52.007Z,3.20
2022-11-14T06:21:53.715Z,3.10
2022-11-14T06:26:55.422Z,3.20
2022-11-14T06:31:57.131Z,3.20
2022-11-14T06:36:58.866Z,3.30
2022-11-14T06:42:00.762Z,3.30
2022-11-14T06:47:02.560Z,3.20
2022-11-14T06:52:04.683Z,3.30
2022-11-14T06:57:06.509Z,3.20
2022-11-14T07:02:15.389Z,3.20
2022-11-14T07:07:19.592Z,3.50
2022-11-14T07:12:21.454Z,3.30
2022-11-14T07:17:27.130Z,3.30
2022-11-14T07:22:31.645Z,3.30
2022-11-14T07:27:33.371Z,3.50
2022-11-14T07:32:35.149Z,3.60
2022-11-14T07:37:36.901Z,3.80
2022-11-14T07:42:38.806Z,3.80
2022-11-14T07:47:40.828Z,3.60
2022-11-14T07:52:42.768Z,3.80
2022-11-14T07:57:48.984Z,3.90
2022-11-14T08:02:51.303Z,4.00
2022-11-14T08:07:53.518Z,4.20
2022-11-14T08:13:30.515Z,4.20
2022-11-14T08:18:26.722Z,4.40
2022-11-14T08:23:28.583Z,4.60
2022-11-14T08:28:30.685Z,4.90
2022-11-14T08:33:32.824Z,5.00
2022-11-14T08:38:34.800Z,5.10
2022-11-14T08:43:36.503Z,5.40
2022-11-14T08:48:38.387Z,5.70
2022-11-14T08:53:40.169Z,5.90
2022-11-14T08:58:42.148Z,6.10
2022-11-14T09:03:44.118Z,6.20
2022-11-14T09:08:46.187Z,6.40
2022-11-14T09:13:48.066Z,6.50
2022-11-14T09:18:49.818Z,6.70
2022-11-14T09:23:51.537Z,6.70
2022-11-14T09:28:53.279Z,6.90
2022-11-14T09:33:55.080Z,6.90
2022-11-14T09:38:56.779Z,7.10
2022-11-14T09:44:09.828Z,7.10
2022-11-14T09:49:37.888Z,7.30
2022-11-14T09:55:12.476Z,7.40
2022-11-14T10:00:20.844Z,7.50
2022-11-14T10:05:45.933Z,7.50
2022-11-14T10:10:58.584Z,7.60
2022-11-14T10:16:07.110Z,7.70
2022-11-14T10:21:51.238Z,7.80
2022-11-14T10:27:00.446Z,7.90
2022-11-14T10:32:10.657Z,7.80
2022-11-14T10:37:21.752Z,7.80
2022-11-14T10:42:31.167Z,7.90
2022-11-14T10:47:43.631Z,8.00
2022-11-14T10:52:46.773Z,8.20
2022-11-14T10:57:48.624Z,8.10
2022-11-14T11:02:59.198Z,8.30
2022-11-14T11:13:54.148Z,8.10
2022-11-14T11:19:15.727Z,8.00
2022-11-14T11:24:33.988Z,7.90
2022-11-14T11:29:35.693Z,7.90
2022-11-14T11:34:37.533Z,7.90
2022-11-14T11:39:50.458Z,7.70
2022-11-14T11:44:59.233Z,7.50
2022-11-14T11:50:02.262Z,7.50
2022-11-14T11:55:25.250Z,7.20
2022-11-14T12:00:27.073Z,7.00
2022-11-14T12:05:53.067Z,6.80
2022-11-14T12:10:57.053Z,6.50
2022-11-14T12:16:11.790Z,6.70
2022-11-14T12:21:26.806Z,6.60
2022-11-14T12:27:06.473Z,6.80
2022-11-14T12:32:14.265Z,6.80
2022-11-14T12:37:18.473Z,6.70
2022-11-14T12:42:21.737Z,6.70
2022-11-14T12:47:26.001Z,6.90
2022-11-14T12:52:45.869Z,6.90
2022-11-14T12:58:11.740Z,7.00
2022-11-14T13:03:35.400Z,6.70
2022-11-14T13:09:02.116Z,6.80
2022-11-14T13:14:27.458Z,6.80
2022-11-14T13:19:47.940Z,6.80
2022-11-14T13:24:58.767Z,7.00
2022-11-14T13:30:02.777Z,7.00
2022-11-14T13:35:05.598Z,7.00
2022-11-14T13:40:30.535Z,6.90
2022-11-14T13:45:41.338Z,7.00
2022-11-14T13:50:45.878Z,6.90
2022-11-14T13:56:05.520Z,6.80
2022-11-14T14:01:29.642Z,6.90
2022-11-14T14:07:03.165Z,6.80
2022-11-14T14:12:17.484Z,6.80
2022-11-14T14:17:43.984Z,7.00
2022-11-14T14:23:17.614Z,6.90
2022-11-14T14:28:39.010Z,7.00
2022-11-14T14:33:46.373Z,7.00
2022-11-14T14:38:48.528Z,6.90
2022-11-14T14:43:55.466Z,6.90
2022-11-14T14:48:59.225Z,7.00
2022-11-14T14:54:01.285Z,7.00
2022-11-14T14:59:17.687Z,6.90
2022-11-14T15:04:21.202Z,7.10
2022-11-14T15:09:26.016Z,7.10
2022-11-14T15:14:31.073Z,7.10
2022-11-14T15:19:42.900Z,7.10
2022-11-14T15:24:45.040Z,7.20
2022-11-14T15:29:55.621Z,7.20
2022-11-14T15:35:25.064Z,7.20
2022-11-14T15:40:27.501Z,7.20
2022-11-14T15:45:39.549Z,7.30
2022-11-14T15:50:42.193Z,7.30
2022-11-14T15:55:43.920Z,7.30
2022-11-14T16:00:50.749Z,7.30
2022-11-14T16:05:52.626Z,7.40
2022-11-14T16:10:54.329Z,7.40
2022-11-14T16:15:56.276Z,7.40
2022-11-14T16:20:59.426Z,7.40
2022-11-14T16:26:01.149Z,7.30
2022-11-14T16:31:02.858Z,7.30
2022-11-14T16:36:04.705Z,7.30
2022-11-14T16:41:08.369Z,7.30
2022-11-14T16:46:11.322Z,7.30
2022-11-14T16:51:40.896Z,7.40
2022-11-14T16:56:34.762Z,7.40
2022-11-14T17:01:37.266Z,7.40
2022-11-14T17:06:39.185Z,7.40
2022-11-14T17:11:40.919Z,7.30
2022-11-14T17:16:42.666Z,7.40
2022-11-14T17:21:44.573Z,7.40
2022-11-14T17:26:46.581Z,7.40
2022-11-14T17:31:48.285Z,7.40
2022-11-14T17:36:50.229Z,7.50
2022-11-14T17:41:52.117Z,7.50
2022-11-14T17:46:53.878Z,7.50
2022-11-14T17:51:55.837Z,7.50
2022-11-14T17:56:59.023Z,7.50
2022-11-14T18:02:03.222Z,7.50
2022-11-14T18:07:05.135Z,7.50
2022-11-14T18:12:07.429Z,7.50
2022-11-14T18:17:13.375Z,7.60
2022-11-14T18:22:15.335Z,7.60
2022-11-14T18:27:17.208Z,7.60
2022-11-14T18:32:19.059Z,7.50
2022-11-14T18:37:22.313Z,7.50
2022-11-14T18:42:24.276Z,7.60
2022-11-14T18:47:26.054Z,7.60
2022-11-14T18:52:27.922Z,7.60
2022-11-14T18:57:29.754Z,7.60
2022-11-14T19:02:31.597Z,7.70
2022-11-14T19:07:33.489Z,7.70
2022-11-14T19:12:36.613Z,7.70
2022-11-14T19:17:38.608Z,7.70
2022-11-14T19:22:40.429Z,7.80
2022-11-14T19:27:42.316Z,7.80
2022-11-14T19:32:44.071Z,7.80
2022-11-14T19:37:45.818Z,7.80
2022-11-14T19:42:47.628Z,7.70
2022-11-14T19:47:49.384Z,7.90
2022-11-14T19:52:52.117Z,7.90
2022-11-14T19:57:53.873Z,7.90
2022-11-14T20:02:55.737Z,7.90
2022-11-14T20:07:57.524Z,8.10
2022-11-14T20:12:59.247Z,7.90
2022-11-14T20:18:01.017Z,8.10
2022-11-14T20:23:02.791Z,8.10
2022-11-14T20:28:08.055Z,8.20
2022-11-14T20:33:10.603Z,8.10
2022-11-14T20:38:12.531Z,8.20
2022-11-14T20:43:14.257Z,8.20
2022-11-14T20:48:16.082Z,8.20
2022-11-14T20:53:18.341Z,8.30
2022-11-14T20:58:21.021Z,8.30
2022-11-14T21:03:23.517Z,8.40
2022-11-14T21:08:25.435Z,8.40
2022-11-14T21:13:46.457Z,8.50
2022-11-14T21:18:48.479Z,8.50
2022-11-14T21:23:50.999Z,8.50
2022-11-14T21:28:58.477Z,8.50
2022-11-14T21:34:06.539Z,8.70
2022-11-14T21:39:08.436Z,8.70
2022-11-14T21:44:16.621Z,8.80
2022-11-14T21:49:18.650Z,8.80
2022-11-14T21:54:20.389Z,8.90
2022-11-14T21:59:26.517Z,8.90
2022-11-14T22:04:28.601Z,9.00
2022-11-14T22:09:32.991Z,8.90
2022-11-14T22:14:34.951Z,8.90
2022-11-14T22:19:36.676Z,9.00
2022-11-14T22:24:38.470Z,9.00
2022-11-14T22:29:40.208Z,9.10
2022-11-14T22:34:41.993Z,9.20
2022-11-14T22:39:43.852Z,9.30
2022-11-14T22:44:45.794Z,9.30
2022-11-14T22:49:47.592Z,9.40
2022-11-14T22:54:49.319Z,9.60
2022-11-14T22:59:51.049Z,9.70
2022-11-14T23:04:52.916Z,9.80
2022-11-14T23:09:54.670Z,9.90
2022-11-14T23:14:56.474Z,9.90
2022-11-14T23:19:58.381Z,10.00
2022-11-14T23:25:00.186Z,10.10
2022-11-14T23:30:02.145Z,10.00
2022-11-14T23:35:04.189Z,10.10
2022-11-14T23:40:06.619Z,10.10
2022-11-14T23:45:08.780Z,10.20
2022-11-14T23:50:10.641Z,10.30
2022-11-14T23:55:12.455Z,10.30
